createdAt,value
2018-09-07T00:01:16.547Z,16.40
2018-09-07T00:03:45.246Z,16.40
2018-09-07T00:06:15.024Z,16.40
2018-09-07T00:08:50.208Z,16.30
2018-09-07T00:11:20.346Z,16.30
2018-09-07T00:13:50.361Z,16.30
2018-09-07T00:16:22.884Z,16.30
2018-09-07T00:18:52.764Z,16.30
2018-09-07T00:21:21.748Z,16.20
2018-09-07T00:23:50.436Z,16.30
2018-09-07T00:26:20.051Z,16.30
2018-09-07T00:28:48.733Z,16.40
2018-09-07T00:31:21.560Z,16.40
2018-09-07T00:33:51.258Z,16.40
2018-09-07T00:36:20.004Z,16.30
2018-09-07T00:38:48.778Z,16.30
2018-09-07T00:41:17.496Z,16.30
2018-09-07T00:43:46.187Z,16.20
2018-09-07T00:46:15.833Z,16.30
2018-09-07T00:48:45.388Z,16.30
2018-09-07T00:51:14.745Z,16.30
2018-09-07T00:53:43.448Z,16.30
2018-09-07T00:56:12.152Z,16.20
2018-09-07T00:58:41.668Z,16.20
2018-09-07T01:01:10.691Z,16.20
2018-09-07T01:03:39.385Z,16.20
2018-09-07T01:06:08.085Z,16.30
2018-09-07T01:08:36.840Z,16.20
2018-09-07T01:11:07.252Z,16.30
2018-09-07T01:13:35.920Z,16.30
2018-09-07T01:16:04.684Z,16.30
2018-09-07T01:18:33.420Z,16.30
2018-09-07T01:21:02.281Z,16.30
2018-09-07T01:23:31.459Z,16.40
2018-09-07T01:26:00.411Z,16.30
2018-09-07T01:28:29.119Z,16.30
2018-09-07T01:30:57.852Z,16.20
2018-09-07T01:33:26.606Z,16.10
2018-09-07T01:35:55.296Z,16.10
2018-09-07T01:38:29.300Z,16.10
2018-09-07T01:40:58.085Z,16.10
2018-09-07T01:43:26.764Z,16.00
2018-09-07T01:45:55.500Z,15.90
2018-09-07T01:48:25.351Z,15.90
2018-09-07T01:50:54.703Z,15.90
2018-09-07T01:53:24.259Z,15.90
2018-09-07T01:55:53.053Z,15.80
2018-09-07T01:58:23.418Z,15.80
2018-09-07T02:00:52.143Z,15.70
2018-09-07T02:03:26.085Z,15.60
2018-09-07T02:05:55.346Z,15.60
2018-09-07T02:08:25.398Z,15.60
2018-09-07T02:10:55.949Z,15.50
2018-09-07T02:13:26.983Z,15.50
2018-09-07T02:15:55.999Z,15.40
2018-09-07T02:18:26.564Z,15.40
2018-09-07T02:20:55.400Z,15.40
2018-09-07T02:23:25.058Z,15.40
2018-09-07T02:25:53.771Z,15.30
2018-09-07T02:28:22.480Z,15.30
2018-09-07T02:30:51.203Z,15.20
2018-09-07T02:33:19.911Z,15.20
2018-09-07T02:35:48.592Z,15.10
2018-09-07T02:38:17.385Z,15.10
2018-09-07T02:40:46.092Z,15.10
2018-09-07T02:43:15.315Z,15.00
2018-09-07T02:45:44.052Z,15.00
2018-09-07T02:48:13.829Z,14.90
2018-09-07T02:50:42.555Z,14.80
2018-09-07T02:53:11.212Z,14.80
2018-09-07T02:55:40.765Z,14.90
2018-09-07T02:58:09.496Z,14.80
2018-09-07T03:00:38.179Z,14.80
2018-09-07T03:03:06.924Z,14.70
2018-09-07T03:05:35.625Z,14.70
2018-09-07T03:08:04.727Z,14.70
2018-09-07T03:10:33.488Z,14.70
2018-09-07T03:13:02.260Z,14.80
2018-09-07T03:15:31.041Z,14.70
2018-09-07T03:17:59.764Z,14.70
2018-09-07T03:20:29.854Z,14.70
2018-09-07T03:22:58.581Z,14.70
2018-09-07T03:25:28.605Z,14.70
2018-09-07T03:27:58.963Z,14.80
2018-09-07T03:30:27.696Z,14.90
2018-09-07T03:32:56.405Z,14.90
2018-09-07T03:35:25.156Z,14.80
2018-09-07T03:37:53.876Z,14.90
2018-09-07T03:40:22.633Z,14.90
2018-09-07T03:42:52.259Z,14.90
2018-09-07T03:45:21.017Z,15.00
2018-09-07T03:47:49.705Z,14.90
2018-09-07T03:50:18.407Z,14.90
2018-09-07T03:52:47.096Z,14.80
2018-09-07T03:55:15.805Z,14.70
2018-09-07T03:57:44.731Z,14.70
2018-09-07T04:00:13.448Z,14.60
2018-09-07T04:02:42.193Z,14.50
2018-09-07T04:05:11.057Z,14.60
2018-09-07T04:07:39.768Z,14.60
2018-09-07T04:10:08.535Z,14.60
2018-09-07T04:12:37.259Z,14.70
2018-09-07T04:15:07.100Z,14.70
2018-09-07T04:17:35.792Z,14.70
2018-09-07T04:20:04.643Z,14.70
2018-09-07T04:22:33.407Z,14.80
2018-09-07T04:25:02.198Z,14.80
2018-09-07T04:27:31.204Z,14.80
2018-09-07T04:29:59.933Z,14.80
2018-09-07T04:32:29.276Z,14.80
2018-09-07T04:34:57.992Z,14.80
2018-09-07T04:37:26.707Z,14.80
2018-09-07T04:39:55.452Z,14.80
2018-09-07T04:42:24.288Z,14.80
2018-09-07T04:44:53.395Z,14.80
2018-09-07T04:47:22.117Z,14.90
2018-09-07T04:49:50.853Z,14.90
2018-09-07T04:52:19.589Z,14.90
2018-09-07T04:56:07.436Z,14.90
2018-09-07T04:58:36.161Z,14.90
2018-09-07T05:01:04.955Z,14.90
2018-09-07T05:03:33.745Z,14.90
2018-09-07T05:06:02.455Z,14.90
2018-09-07T05:08:31.261Z,14.90
2018-09-07T05:11:00.871Z,14.80
2018-09-07T05:13:29.628Z,14.80
2018-09-07T05:15:58.488Z,14.80
2018-09-07T05:18:27.554Z,14.90
2018-09-07T05:20:56.405Z,14.80
2018-09-07T05:23:25.231Z,14.80
2018-09-07T05:25:54.380Z,14.70
2018-09-07T05:28:23.104Z,14.70
2018-09-07T05:30:51.799Z,14.60
2018-09-07T05:33:20.488Z,14.60
2018-09-07T05:35:49.262Z,14.70
2018-09-07T05:38:18.584Z,14.90
2018-09-07T05:40:47.338Z,15.00
2018-09-07T05:43:16.110Z,15.20
2018-09-07T05:45:45.577Z,15.30
2018-09-07T05:48:14.305Z,15.50
2018-09-07T05:50:45.048Z,15.40
2018-09-07T05:53:14.960Z,15.30
2018-09-07T05:55:43.802Z,15.30
2018-09-07T05:58:13.353Z,15.30
2018-09-07T06:00:42.298Z,15.50
2018-09-07T06:03:11.030Z,15.80
2018-09-07T06:05:39.769Z,15.90
2018-09-07T06:08:08.505Z,15.70
2018-09-07T06:10:37.309Z,15.60
2018-09-07T06:13:06.316Z,15.80
2018-09-07T06:15:41.967Z,15.80
2018-09-07T06:18:12.154Z,16.00
2018-09-07T06:20:41.220Z,15.80
2018-09-07T06:23:11.715Z,15.80
2018-09-07T06:25:40.517Z,15.80
2018-09-07T06:28:11.404Z,16.00
2018-09-07T06:30:40.161Z,16.10
2018-09-07T06:33:08.994Z,16.50
2018-09-07T06:36:56.877Z,16.70
2018-09-07T06:39:26.250Z,16.70
2018-09-07T06:41:57.116Z,16.40
2018-09-07T06:44:25.966Z,16.20
2018-09-07T06:46:54.867Z,15.80
2018-09-07T06:49:23.663Z,15.70
2018-09-07T06:52:04.775Z,15.40
2018-09-07T06:54:34.555Z,15.40
2018-09-07T06:57:05.210Z,15.50
2018-09-07T06:59:35.025Z,15.50
2018-09-07T07:02:04.095Z,15.60
2018-09-07T07:04:33.116Z,15.80
2018-09-07T07:07:03.139Z,15.90
2018-09-07T07:09:31.995Z,16.00
2018-09-07T07:12:00.789Z,16.10
2018-09-07T07:14:29.563Z,16.30
2018-09-07T07:17:00.714Z,16.40
2018-09-07T07:19:30.437Z,16.60
2018-09-07T07:21:59.440Z,16.70
2018-09-07T07:24:28.956Z,16.80
2018-09-07T07:26:57.720Z,16.90
2018-09-07T07:29:26.767Z,16.80
2018-09-07T07:31:55.968Z,17.00
2018-09-07T07:34:25.027Z,17.10
2018-09-07T07:36:54.885Z,17.20
2018-09-07T07:39:23.677Z,17.40
2018-09-07T07:41:56.300Z,17.70
2018-09-07T07:44:25.135Z,17.80
2018-09-07T07:46:53.965Z,17.90
2018-09-07T07:49:23.648Z,18.10
2018-09-07T07:51:53.292Z,18.40
2018-09-07T07:54:22.318Z,18.60
2018-09-07T07:58:10.673Z,18.80
2018-09-07T08:00:41.622Z,18.90
2018-09-07T08:03:11.302Z,19.00
2018-09-07T08:05:40.191Z,19.00
2018-09-07T08:08:09.220Z,19.00
2018-09-07T08:10:38.691Z,19.10
2018-09-07T08:13:08.221Z,19.20
2018-09-07T08:15:38.174Z,19.30
2018-09-07T08:18:08.670Z,19.50
2018-09-07T08:20:37.625Z,19.80
2018-09-07T08:23:10.127Z,19.80
2018-09-07T08:25:40.168Z,19.90
2018-09-07T08:28:11.906Z,19.60
2018-09-07T08:30:40.681Z,19.30
2018-09-07T08:33:09.752Z,18.90
2018-09-07T08:35:40.216Z,18.70
2018-09-07T08:38:08.919Z,19.10
2018-09-07T08:40:37.832Z,19.20
2018-09-07T08:43:06.549Z,19.60
2018-09-07T08:45:37.865Z,20.00
2018-09-07T08:48:07.738Z,20.30
2018-09-07T08:50:37.202Z,20.70
2018-09-07T08:53:06.951Z,21.30
2018-09-07T08:55:36.340Z,21.40
2018-09-07T08:58:05.568Z,21.70
2018-09-07T09:00:34.316Z,21.70
2018-09-07T09:03:04.223Z,22.00
2018-09-07T09:05:34.920Z,21.70
2018-09-07T09:08:04.678Z,21.90
2018-09-07T09:10:35.024Z,22.00
2018-09-07T09:13:04.976Z,22.20
2018-09-07T09:15:34.479Z,22.20
2018-09-07T09:18:03.349Z,22.60
2018-09-07T09:20:32.116Z,23.00
2018-09-07T09:23:01.873Z,22.90
2018-09-07T09:25:31.523Z,22.30
2018-09-07T09:28:01.308Z,22.10
2018-09-07T09:30:31.028Z,21.60
2018-09-07T09:33:00.389Z,21.40
2018-09-07T09:35:29.333Z,21.30
2018-09-07T09:37:58.074Z,21.20
2018-09-07T09:40:26.893Z,21.10
2018-09-07T09:42:57.043Z,21.10
2018-09-07T09:45:27.944Z,21.40
2018-09-07T09:47:57.199Z,21.60
2018-09-07T09:50:27.293Z,21.90
2018-09-07T09:52:56.172Z,22.00
2018-09-07T09:55:24.960Z,22.20
2018-09-07T09:57:53.699Z,22.50
2018-09-07T10:00:27.811Z,22.40
2018-09-07T10:03:01.732Z,22.20
2018-09-07T10:05:30.480Z,22.30
2018-09-07T10:07:59.181Z,22.70
2018-09-07T10:10:27.991Z,23.30
2018-09-07T10:12:57.337Z,23.40
2018-09-07T10:15:26.821Z,23.00
2018-09-07T10:19:15.513Z,22.70
2018-09-07T10:21:44.257Z,22.50
2018-09-07T10:24:13.813Z,21.90
2018-09-07T10:26:42.752Z,21.60
2018-09-07T10:29:11.506Z,21.30
2018-09-07T10:31:44.198Z,20.80
2018-09-07T10:34:16.003Z,20.60
2018-09-07T10:36:45.222Z,20.70
2018-09-07T10:39:15.706Z,21.10
2018-09-07T10:41:46.030Z,21.10
2018-09-07T10:44:16.878Z,21.20
2018-09-07T10:46:45.699Z,21.10
2018-09-07T10:49:15.587Z,21.20
2018-09-07T10:51:44.771Z,21.10
2018-09-07T10:54:14.304Z,21.00
2018-09-07T11:03:41.231Z,20.70
2018-09-07T11:06:10.824Z,20.40
2018-09-07T11:08:39.697Z,20.60
2018-09-07T11:11:09.171Z,20.60
2018-09-07T11:13:38.338Z,20.80
2018-09-07T11:16:07.316Z,21.00
2018-09-07T11:18:37.281Z,20.90
2018-09-07T11:21:07.402Z,21.00
2018-09-07T11:23:36.234Z,21.10
2018-09-07T11:26:05.415Z,21.10
2018-09-07T11:28:41.651Z,20.90
2018-09-07T11:31:13.283Z,20.80
2018-09-07T11:33:43.268Z,20.80
2018-09-07T11:36:12.569Z,21.10
2018-09-07T11:38:50.055Z,20.90
2018-09-07T11:42:38.225Z,20.90
2018-09-07T11:45:08.425Z,20.80
2018-09-07T11:47:37.924Z,20.80
2018-09-07T11:50:06.891Z,20.90
2018-09-07T11:52:35.710Z,21.10
2018-09-07T11:55:04.635Z,21.60
2018-09-07T11:57:35.373Z,22.00
2018-09-07T12:00:09.729Z,22.30
2018-09-07T12:02:38.773Z,22.70
2018-09-07T12:05:07.997Z,23.00
2018-09-07T12:08:56.848Z,23.40
2018-09-07T12:11:27.182Z,23.30
2018-09-07T12:13:56.572Z,22.70
2018-09-07T12:16:28.881Z,22.90
2018-09-07T12:18:58.812Z,22.80
2018-09-07T12:21:28.634Z,22.50
2018-09-07T12:23:58.263Z,22.20
2018-09-07T12:33:28.494Z,22.10
2018-09-07T12:35:58.033Z,21.60
2018-09-07T12:38:27.311Z,21.40
2018-09-07T12:41:00.334Z,21.20
2018-09-07T12:43:31.022Z,20.90
2018-09-07T12:46:04.746Z,20.80
2018-09-07T12:48:33.639Z,20.80
2018-09-07T12:51:04.408Z,21.00
2018-09-07T12:53:33.567Z,21.10
2018-09-07T12:56:04.086Z,21.30
2018-09-07T12:58:35.574Z,21.40
2018-09-07T13:01:04.462Z,21.60
2018-09-07T13:03:33.222Z,21.90
2018-09-07T13:06:03.610Z,22.00
2018-09-07T13:08:33.060Z,22.00
2018-09-07T13:11:04.049Z,21.70
2018-09-07T13:13:32.784Z,21.40
2018-09-07T13:16:02.134Z,21.00
2018-09-07T13:18:30.951Z,20.90
2018-09-07T13:20:59.708Z,20.60
2018-09-07T13:23:30.188Z,20.40
2018-09-07T13:25:59.521Z,20.20
2018-09-07T13:28:29.702Z,20.10
2018-09-07T13:30:58.443Z,20.00
2018-09-07T13:33:28.694Z,19.90
2018-09-07T13:35:57.782Z,19.80
2018-09-07T13:38:27.152Z,19.70
2018-09-07T13:40:57.672Z,19.60
2018-09-07T13:43:26.596Z,19.70
2018-09-07T13:45:55.641Z,19.60
2018-09-07T13:48:24.536Z,19.60
2018-09-07T13:50:55.321Z,19.60
2018-09-07T13:53:25.308Z,19.80
2018-09-07T13:55:55.114Z,19.80
2018-09-07T13:58:24.422Z,20.10
2018-09-07T14:00:55.595Z,20.50
2018-09-07T14:03:24.482Z,21.00
2018-09-07T14:05:54.460Z,21.40
2018-09-07T14:08:30.180Z,21.60
2018-09-07T14:11:00.209Z,21.80
2018-09-07T14:13:29.280Z,21.60
2018-09-07T14:15:58.961Z,21.70
2018-09-07T14:18:29.457Z,21.80
2018-09-07T14:20:58.163Z,21.50
2018-09-07T14:23:27.471Z,21.30
2018-09-07T14:25:57.169Z,21.10
2018-09-07T14:29:45.440Z,20.90
2018-09-07T14:32:15.505Z,20.90
2018-09-07T14:34:44.918Z,20.80
2018-09-07T14:37:13.781Z,20.80
2018-09-07T14:39:43.320Z,21.10
2018-09-07T14:42:13.309Z,21.30
2018-09-07T14:44:42.202Z,21.20
2018-09-07T14:47:11.110Z,21.00
2018-09-07T14:49:41.366Z,20.80
2018-09-07T14:52:10.135Z,20.60
2018-09-07T14:54:39.516Z,20.50
2018-09-07T14:57:16.639Z,20.30
2018-09-07T14:59:47.374Z,20.20
2018-09-07T15:02:19.893Z,20.20
2018-09-07T15:04:49.185Z,20.10
2018-09-07T15:07:18.471Z,20.20
2018-09-07T15:09:47.884Z,20.30
2018-09-07T15:12:30.405Z,20.40
2018-09-07T15:15:02.258Z,20.30
2018-09-07T15:17:35.198Z,20.20
2018-09-07T15:20:05.434Z,20.20
2018-09-07T15:22:36.216Z,20.20
2018-09-07T15:25:07.141Z,20.30
2018-09-07T15:27:36.146Z,20.40
2018-09-07T15:30:11.459Z,20.40
2018-09-07T15:32:40.492Z,20.50
2018-09-07T15:35:17.073Z,20.40
2018-09-07T15:37:46.901Z,20.20
2018-09-07T15:40:15.743Z,20.10
2018-09-07T15:42:51.426Z,19.90
2018-09-07T15:45:20.284Z,19.80
2018-09-07T15:47:49.074Z,19.70
2018-09-07T15:50:17.884Z,19.60
2018-09-07T15:52:46.850Z,19.50
2018-09-07T15:56:35.860Z,19.50
2018-09-07T15:59:07.615Z,19.50
2018-09-07T16:01:37.051Z,19.50
2018-09-07T16:04:06.710Z,19.40
2018-09-07T16:06:35.446Z,19.30
2018-09-07T16:09:06.579Z,19.30
2018-09-07T16:11:45.359Z,19.20
2018-09-07T16:14:14.376Z,19.20
2018-09-07T16:16:43.248Z,19.20
2018-09-07T16:19:13.568Z,19.20
2018-09-07T16:21:42.675Z,19.20
2018-09-07T16:24:12.373Z,19.20
2018-09-07T16:26:43.446Z,19.20
2018-09-07T16:29:12.462Z,19.20
2018-09-07T16:31:41.868Z,19.20
2018-09-07T16:34:11.927Z,19.10
2018-09-07T16:36:44.324Z,18.80
2018-09-07T16:39:14.144Z,18.60
2018-09-07T16:41:43.623Z,18.40
2018-09-07T16:44:13.737Z,18.30
2018-09-07T16:46:42.497Z,18.20
2018-09-07T16:49:12.090Z,18.10
2018-09-07T16:51:41.216Z,18.00
2018-09-07T16:54:10.775Z,17.80
2018-09-07T16:56:46.597Z,17.80
2018-09-07T16:59:15.773Z,17.70
2018-09-07T17:01:45.058Z,17.70
2018-09-07T17:04:14.224Z,17.60
2018-09-07T17:08:02.301Z,17.60
2018-09-07T17:10:31.415Z,17.50
2018-09-07T17:13:01.314Z,17.50
2018-09-07T17:15:30.487Z,17.30
2018-09-07T17:18:00.793Z,17.40
2018-09-07T17:20:31.328Z,17.30
2018-09-07T17:23:01.360Z,17.30
2018-09-07T17:26:09.058Z,17.20
2018-09-07T17:28:42.539Z,17.20
2018-09-07T17:31:12.772Z,17.20
2018-09-07T17:33:42.928Z,17.20
2018-09-07T17:36:16.214Z,17.10
2018-09-07T17:38:45.828Z,17.00
2018-09-07T17:41:17.334Z,16.90
2018-09-07T17:43:49.714Z,16.80
2018-09-07T17:46:18.615Z,16.60
2018-09-07T17:48:48.240Z,16.70
2018-09-07T17:51:19.006Z,16.60
2018-09-07T17:53:48.128Z,16.70
2018-09-07T17:56:16.936Z,16.60
2018-09-07T17:58:45.741Z,16.60
2018-09-07T18:01:20.477Z,16.60
2018-09-07T18:03:49.315Z,16.50
2018-09-07T18:06:30.145Z,16.60
2018-09-07T18:09:17.608Z,16.60
2018-09-07T18:11:47.407Z,16.50
2018-09-07T18:14:20.418Z,16.30
2018-09-07T18:16:52.433Z,16.40
2018-09-07T18:19:29.107Z,16.30
2018-09-07T18:22:00.780Z,16.20
2018-09-07T18:24:34.295Z,16.20
2018-09-07T18:27:06.392Z,16.30
2018-09-07T18:29:38.164Z,16.30
2018-09-07T18:32:07.668Z,16.10
2018-09-07T18:34:38.155Z,16.20
2018-09-07T18:37:22.603Z,16.00
2018-09-07T18:39:54.551Z,16.00
2018-09-07T18:42:24.266Z,16.00
2018-09-07T18:44:54.531Z,15.90
2018-09-07T18:47:24.696Z,15.90
2018-09-07T18:49:54.461Z,15.90
2018-09-07T18:52:25.933Z,15.90
2018-09-07T18:54:55.310Z,15.90
2018-09-07T18:57:27.324Z,15.80
2018-09-07T18:59:56.713Z,15.60
2018-09-07T19:02:26.643Z,15.60
2018-09-07T19:04:56.237Z,15.50
2018-09-07T19:07:25.600Z,15.40
2018-09-07T19:13:01.181Z,15.20
2018-09-07T19:15:32.713Z,15.20
2018-09-07T19:18:02.724Z,15.10
2018-09-07T19:20:36.698Z,15.00
2018-09-07T19:23:07.278Z,15.00
2018-09-07T19:25:42.728Z,14.90
2018-09-07T19:28:15.368Z,14.80
2018-09-07T19:30:46.146Z,14.80
2018-09-07T19:33:16.606Z,14.80
2018-09-07T19:35:49.299Z,14.80
2018-09-07T19:38:25.895Z,14.70
2018-09-07T19:40:59.888Z,14.70
2018-09-07T19:43:40.789Z,14.60
2018-09-07T19:46:11.205Z,14.50
2018-09-07T19:48:41.437Z,14.50
2018-09-07T19:51:10.175Z,14.40
2018-09-07T19:53:39.337Z,14.40
2018-09-07T19:56:08.148Z,14.30
2018-09-07T19:58:39.309Z,14.30
2018-09-07T20:01:09.282Z,14.20
2018-09-07T20:03:40.254Z,14.20
2018-09-07T20:06:10.012Z,14.10
2018-09-07T20:08:46.024Z,14.10
2018-09-07T20:11:16.693Z,14.00
2018-09-07T20:13:45.439Z,14.00
2018-09-07T20:16:15.354Z,14.00
2018-09-07T20:18:49.384Z,14.00
2018-09-07T20:24:09.427Z,14.00
2018-09-07T20:26:38.180Z,14.00
2018-09-07T20:29:06.918Z,14.00
2018-09-07T20:31:36.492Z,14.00
2018-09-07T20:34:06.296Z,13.90
2018-09-07T20:36:35.712Z,13.90
2018-09-07T20:39:07.361Z,13.90
2018-09-07T20:41:36.265Z,13.80
2018-09-07T20:44:06.486Z,13.80
2018-09-07T20:46:37.628Z,13.80
2018-09-07T20:49:08.422Z,13.80
2018-09-07T20:51:39.816Z,13.70
2018-09-07T20:54:10.745Z,13.60
2018-09-07T20:56:46.734Z,13.60
2018-09-07T20:59:15.571Z,13.60
2018-09-07T21:01:45.258Z,13.60
2018-09-07T21:04:16.197Z,13.50
2018-09-07T21:06:46.352Z,13.60
2018-09-07T21:09:15.075Z,13.60
2018-09-07T21:11:43.988Z,13.50
2018-09-07T21:14:14.011Z,13.50
2018-09-07T21:16:43.432Z,13.60
2018-09-07T21:19:12.172Z,13.60
2018-09-07T21:21:40.936Z,13.60
2018-09-07T21:24:11.263Z,13.40
2018-09-07T21:26:41.918Z,13.40
2018-09-07T21:29:12.485Z,13.40
2018-09-07T21:31:42.881Z,13.40
2018-09-07T21:34:12.227Z,13.40
2018-09-07T21:36:40.963Z,13.40
2018-09-07T21:39:12.807Z,13.40
2018-09-07T21:41:43.276Z,13.50
2018-09-07T21:44:12.687Z,13.40
2018-09-07T21:46:42.164Z,13.40
2018-09-07T21:49:11.741Z,13.40
2018-09-07T21:51:46.102Z,13.40
2018-09-07T21:54:15.315Z,13.40
2018-09-07T21:56:45.323Z,13.30
2018-09-07T21:59:16.389Z,13.20
2018-09-07T22:01:46.424Z,13.20
2018-09-07T22:04:15.855Z,13.10
2018-09-07T22:06:49.893Z,13.10
2018-09-07T22:09:21.449Z,13.10
2018-09-07T22:11:50.224Z,13.00
2018-09-07T22:14:19.571Z,12.90
2018-09-07T22:16:48.300Z,12.90
2018-09-07T22:19:18.243Z,13.00
2018-09-07T22:21:46.997Z,12.90
2018-09-07T22:24:16.500Z,12.90
2018-09-07T22:26:45.686Z,12.80
2018-09-07T22:29:15.393Z,12.70
2018-09-07T22:31:44.273Z,12.70
2018-09-07T22:34:13.493Z,12.70
2018-09-07T22:36:42.225Z,12.70
2018-09-07T22:39:11.235Z,12.60
2018-09-07T22:41:40.610Z,12.50
2018-09-07T22:44:10.340Z,12.50
2018-09-07T22:46:41.667Z,12.50
2018-09-07T22:49:10.709Z,12.50
2018-09-07T22:51:39.557Z,12.50
2018-09-07T22:54:09.506Z,12.40
2018-09-07T22:56:39.248Z,12.40
2018-09-07T22:59:08.296Z,12.40
2018-09-07T23:01:37.296Z,12.40
2018-09-07T23:04:07.221Z,12.30
2018-09-07T23:06:41.400Z,12.20
2018-09-07T23:09:10.801Z,12.20
2018-09-07T23:11:42.377Z,12.20
2018-09-07T23:14:11.784Z,12.30
2018-09-07T23:16:42.828Z,12.20
2018-09-07T23:19:14.072Z,12.20
2018-09-07T23:21:43.164Z,12.20
2018-09-07T23:24:12.445Z,12.20
2018-09-07T23:26:41.190Z,12.20
2018-09-07T23:29:10.868Z,12.20
2018-09-07T23:31:39.661Z,12.20
2018-09-07T23:34:08.466Z,12.10
2018-09-07T23:36:37.192Z,12.10
2018-09-07T23:39:08.571Z,12.10
2018-09-07T23:41:38.285Z,12.10
2018-09-07T23:44:07.011Z,12.00
2018-09-07T23:46:36.186Z,12.00
2018-09-07T23:49:05.195Z,11.90
2018-09-07T23:51:35.420Z,11.90
2018-09-07T23:54:05.055Z,11.70
2018-09-07T23:56:35.266Z,11.60
2018-09-07T23:59:05.173Z,11.60
